sensor_id;sensor_type;location;lat;lon;timestamp;temperature;humidity
42159;DHT22;27822;44.430;10.790;2022-07-29T00:00:35;24.50;75.30
42159;DHT22;27822;44.430;10.790;2022-07-29T00:03:02;24.50;75.60
42159;DHT22;27822;44.430;10.790;2022-07-29T00:05:27;24.50;75.80
42159;DHT22;27822;44.430;10.790;2022-07-29T00:07:53;24.50;75.80
42159;DHT22;27822;44.430;10.790;2022-07-29T00:10:19;24.50;76.00
42159;DHT22;27822;44.430;10.790;2022-07-29T00:12:45;24.50;76.30
42159;DHT22;27822;44.430;10.790;2022-07-29T00:15:11;24.50;76.80
42159;DHT22;27822;44.430;10.790;2022-07-29T00:17:37;24.60;77.30
42159;DHT22;27822;44.430;10.790;2022-07-29T00:20:03;24.60;77.30
42159;DHT22;27822;44.430;10.790;2022-07-29T00:22:29;24.50;77.00
42159;DHT22;27822;44.430;10.790;2022-07-29T00:24:55;24.50;77.20
42159;DHT22;27822;44.430;10.790;2022-07-29T00:27:21;24.50;77.60
42159;DHT22;27822;44.430;10.790;2022-07-29T00:29:47;24.50;77.70
42159;DHT22;27822;44.430;10.790;2022-07-29T00:32:13;24.50;77.70
42159;DHT22;27822;44.430;10.790;2022-07-29T00:34:39;24.50;77.70
42159;DHT22;27822;44.430;10.790;2022-07-29T00:37:24;24.50;77.60
42159;DHT22;27822;44.430;10.790;2022-07-29T00:39:50;24.40;77.30
42159;DHT22;27822;44.430;10.790;2022-07-29T00:42:16;24.50;77.60
42159;DHT22;27822;44.430;10.790;2022-07-29T00:44:43;24.50;77.40
42159;DHT22;27822;44.430;10.790;2022-07-29T00:47:10;24.50;77.70
42159;DHT22;27822;44.430;10.790;2022-07-29T00:49:38;24.50;77.50
42159;DHT22;27822;44.430;10.790;2022-07-29T00:52:05;24.50;77.40
42159;DHT22;27822;44.430;10.790;2022-07-29T00:54:32;24.40;77.50
42159;DHT22;27822;44.430;10.790;2022-07-29T00:57:05;24.40;78.20
42159;DHT22;27822;44.430;10.790;2022-07-29T00:59:35;24.40;78.70
42159;DHT22;27822;44.430;10.790;2022-07-29T01:02:04;24.40;79.10
42159;DHT22;27822;44.430;10.790;2022-07-29T01:04:31;24.20;80.00
42159;DHT22;27822;44.430;10.790;2022-07-29T01:06:57;24.20;80.50
42159;DHT22;27822;44.430;10.790;2022-07-29T01:09:23;24.20;80.80
42159;DHT22;27822;44.430;10.790;2022-07-29T01:11:50;24.10;81.10
42159;DHT22;27822;44.430;10.790;2022-07-29T01:14:16;24.00;81.80
42159;DHT22;27822;44.430;10.790;2022-07-29T01:16:54;23.90;82.20
42159;DHT22;27822;44.430;10.790;2022-07-29T01:22:49;23.80;83.10
42159;DHT22;27822;44.430;10.790;2022-07-29T01:30:58;23.80;83.50
42159;DHT22;27822;44.430;10.790;2022-07-29T01:33:27;23.80;83.60
42159;DHT22;27822;44.430;10.790;2022-07-29T01:38:56;23.70;84.30
42159;DHT22;27822;44.430;10.790;2022-07-29T01:41:25;23.70;84.40
42159;DHT22;27822;44.430;10.790;2022-07-29T01:43:57;23.70;85.00
42159;DHT22;27822;44.430;10.790;2022-07-29T01:46:39;23.60;85.20
42159;DHT22;27822;44.430;10.790;2022-07-29T01:49:21;23.60;86.30
42159;DHT22;27822;44.430;10.790;2022-07-29T01:51:53;23.60;87.40
42159;DHT22;27822;44.430;10.790;2022-07-29T01:56:54;23.60;89.30
42159;DHT22;27822;44.430;10.790;2022-07-29T01:59:26;23.60;90.00
42159;DHT22;27822;44.430;10.790;2022-07-29T02:01:57;23.60;90.30
42159;DHT22;27822;44.430;10.790;2022-07-29T02:04:24;23.50;90.80
42159;DHT22;27822;44.430;10.790;2022-07-29T02:06:53;23.50;90.80
42159;DHT22;27822;44.430;10.790;2022-07-29T02:09:21;23.50;91.10
42159;DHT22;27822;44.430;10.790;2022-07-29T02:11:51;23.50;91.30
42159;DHT22;27822;44.430;10.790;2022-07-29T02:14:19;23.40;91.50
42159;DHT22;27822;44.430;10.790;2022-07-29T02:16:48;23.40;91.50
42159;DHT22;27822;44.430;10.790;2022-07-29T02:19:18;23.40;91.60
42159;DHT22;27822;44.430;10.790;2022-07-29T02:21:45;23.40;91.70
42159;DHT22;27822;44.430;10.790;2022-07-29T02:24:12;23.30;91.60
42159;DHT22;27822;44.430;10.790;2022-07-29T02:26:41;23.30;91.70
42159;DHT22;27822;44.430;10.790;2022-07-29T02:29:10;23.30;91.50
42159;DHT22;27822;44.430;10.790;2022-07-29T02:31:38;23.30;91.40
42159;DHT22;27822;44.430;10.790;2022-07-29T02:34:08;23.30;91.30
42159;DHT22;27822;44.430;10.790;2022-07-29T02:36:35;23.20;91.20
42159;DHT22;27822;44.430;10.790;2022-07-29T02:39:03;23.20;91.20
42159;DHT22;27822;44.430;10.790;2022-07-29T02:44:13;23.20;91.50
42159;DHT22;27822;44.430;10.790;2022-07-29T02:46:53;23.10;91.70
42159;DHT22;27822;44.430;10.790;2022-07-29T02:49:30;23.10;91.70
42159;DHT22;27822;44.430;10.790;2022-07-29T02:52:03;23.10;91.60
42159;DHT22;27822;44.430;10.790;2022-07-29T02:55:00;23.10;91.50
42159;DHT22;27822;44.430;10.790;2022-07-29T02:57:37;23.10;91.40
42159;DHT22;27822;44.430;10.790;2022-07-29T03:00:08;23.10;91.40
42159;DHT22;27822;44.430;10.790;2022-07-29T03:02:37;23.10;91.50
42159;DHT22;27822;44.430;10.790;2022-07-29T03:05:08;23.10;91.00
42159;DHT22;27822;44.430;10.790;2022-07-29T03:07:36;23.00;91.00
42159;DHT22;27822;44.430;10.790;2022-07-29T03:10:03;23.00;91.20
42159;DHT22;27822;44.430;10.790;2022-07-29T03:12:30;23.00;91.30
42159;DHT22;27822;44.430;10.790;2022-07-29T03:14:57;23.00;91.30
42159;DHT22;27822;44.430;10.790;2022-07-29T03:17:25;22.90;91.40
42159;DHT22;27822;44.430;10.790;2022-07-29T03:19:51;23.00;91.30
42159;DHT22;27822;44.430;10.790;2022-07-29T03:22:18;23.00;91.30
42159;DHT22;27822;44.430;10.790;2022-07-29T03:24:44;23.00;91.30
42159;DHT22;27822;44.430;10.790;2022-07-29T03:27:10;22.90;91.30
42159;DHT22;27822;44.430;10.790;2022-07-29T03:29:37;23.00;91.40
42159;DHT22;27822;44.430;10.790;2022-07-29T03:32:04;23.00;91.50
42159;DHT22;27822;44.430;10.790;2022-07-29T03:34:31;23.00;91.50
42159;DHT22;27822;44.430;10.790;2022-07-29T03:36:57;23.00;91.50
42159;DHT22;27822;44.430;10.790;2022-07-29T03:39:27;23.10;91.50
42159;DHT22;27822;44.430;10.790;2022-07-29T03:41:56;23.10;91.60
42159;DHT22;27822;44.430;10.790;2022-07-29T03:44:26;23.20;91.60
42159;DHT22;27822;44.430;10.790;2022-07-29T03:46:56;23.10;91.60
42159;DHT22;27822;44.430;10.790;2022-07-29T03:49:25;23.10;91.50
42159;DHT22;27822;44.430;10.790;2022-07-29T03:51:52;23.10;91.40
42159;DHT22;27822;44.430;10.790;2022-07-29T03:54:18;23.10;91.30
42159;DHT22;27822;44.430;10.790;2022-07-29T03:56:46;23.10;91.20
42159;DHT22;27822;44.430;10.790;2022-07-29T03:59:15;23.20;91.10
42159;DHT22;27822;44.430;10.790;2022-07-29T04:01:43;23.20;91.00
42159;DHT22;27822;44.430;10.790;2022-07-29T04:04:09;23.20;90.90
42159;DHT22;27822;44.430;10.790;2022-07-29T04:06:44;23.20;90.80
42159;DHT22;27822;44.430;10.790;2022-07-29T04:09:11;23.10;90.70
42159;DHT22;27822;44.430;10.790;2022-07-29T04:11:39;23.10;90.70
42159;DHT22;27822;44.430;10.790;2022-07-29T04:14:05;23.20;90.70
42159;DHT22;27822;44.430;10.790;2022-07-29T04:16:32;23.20;90.50
42159;DHT22;27822;44.430;10.790;2022-07-29T04:18:59;23.30;90.30
42159;DHT22;27822;44.430;10.790;2022-07-29T04:21:25;23.30;90.10
42159;DHT22;27822;44.430;10.790;2022-07-29T04:23:51;23.40;90.00
42159;DHT22;27822;44.430;10.790;2022-07-29T04:26:18;23.40;90.00
42159;DHT22;27822;44.430;10.790;2022-07-29T04:28:45;23.50;89.90
42159;DHT22;27822;44.430;10.790;2022-07-29T04:31:12;23.60;89.90
42159;DHT22;27822;44.430;10.790;2022-07-29T04:33:39;23.70;90.00
42159;DHT22;27822;44.430;10.790;2022-07-29T04:36:05;23.90;89.80
42159;DHT22;27822;44.430;10.790;2022-07-29T04:38:31;24.00;89.60
42159;DHT22;27822;44.430;10.790;2022-07-29T04:40:58;24.20;89.50
42159;DHT22;27822;44.430;10.790;2022-07-29T04:43:24;24.40;89.40
42159;DHT22;27822;44.430;10.790;2022-07-29T04:45:50;24.70;88.90
42159;DHT22;27822;44.430;10.790;2022-07-29T04:48:16;25.10;87.80
42159;DHT22;27822;44.430;10.790;2022-07-29T04:50:42;26.00;85.90
42159;DHT22;27822;44.430;10.790;2022-07-29T04:53:09;26.70;84.40
42159;DHT22;27822;44.430;10.790;2022-07-29T04:55:36;28.80;81.20
42159;DHT22;27822;44.430;10.790;2022-07-29T04:58:02;31.00;75.20
42159;DHT22;27822;44.430;10.790;2022-07-29T05:00:32;33.00;70.60
42159;DHT22;27822;44.430;10.790;2022-07-29T05:03:04;34.70;66.40
42159;DHT22;27822;44.430;10.790;2022-07-29T05:05:36;36.30;62.80
42159;DHT22;27822;44.430;10.790;2022-07-29T05:08:03;37.70;60.20
42159;DHT22;27822;44.430;10.790;2022-07-29T05:10:30;38.90;57.70
42159;DHT22;27822;44.430;10.790;2022-07-29T05:12:57;39.80;56.10
42159;DHT22;27822;44.430;10.790;2022-07-29T05:15:24;40.70;54.70
42159;DHT22;27822;44.430;10.790;2022-07-29T05:17:50;41.40;53.50
42159;DHT22;27822;44.430;10.790;2022-07-29T05:20:16;42.20;52.00
42159;DHT22;27822;44.430;10.790;2022-07-29T05:22:43;42.80;50.50
42159;DHT22;27822;44.430;10.790;2022-07-29T05:25:09;43.30;49.80
42159;DHT22;27822;44.430;10.790;2022-07-29T05:27:36;43.70;48.50
42159;DHT22;27822;44.430;10.790;2022-07-29T05:30:02;44.00;47.90
42159;DHT22;27822;44.430;10.790;2022-07-29T05:32:28;44.30;47.50
42159;DHT22;27822;44.430;10.790;2022-07-29T05:34:54;44.70;46.90
42159;DHT22;27822;44.430;10.790;2022-07-29T05:37:20;45.10;47.00
42159;DHT22;27822;44.430;10.790;2022-07-29T05:39:46;45.40;47.10
42159;DHT22;27822;44.430;10.790;2022-07-29T05:42:12;44.90;46.70
42159;DHT22;27822;44.430;10.790;2022-07-29T05:44:38;43.30;47.60
42159;DHT22;27822;44.430;10.790;2022-07-29T05:47:04;41.30;49.60
42159;DHT22;27822;44.430;10.790;2022-07-29T05:49:30;39.70;51.70
42159;DHT22;27822;44.430;10.790;2022-07-29T05:51:56;38.30;53.50
42159;DHT22;27822;44.430;10.790;2022-07-29T05:54:22;37.00;54.80
42159;DHT22;27822;44.430;10.790;2022-07-29T05:56:48;35.60;56.80
42159;DHT22;27822;44.430;10.790;2022-07-29T05:59:13;34.40;58.70
42159;DHT22;27822;44.430;10.790;2022-07-29T06:01:39;33.60;60.00
42159;DHT22;27822;44.430;10.790;2022-07-29T06:04:08;32.90;61.20
42159;DHT22;27822;44.430;10.790;2022-07-29T06:06:34;31.90;62.50
42159;DHT22;27822;44.430;10.790;2022-07-29T06:09:01;31.30;64.60
42159;DHT22;27822;44.430;10.790;2022-07-29T06:11:27;30.90;65.20
42159;DHT22;27822;44.430;10.790;2022-07-29T06:13:53;30.60;66.00
42159;DHT22;27822;44.430;10.790;2022-07-29T06:16:18;30.60;66.20
42159;DHT22;27822;44.430;10.790;2022-07-29T06:18:44;30.50;67.20
42159;DHT22;27822;44.430;10.790;2022-07-29T06:21:10;30.40;67.30
42159;DHT22;27822;44.430;10.790;2022-07-29T06:23:39;30.50;66.90
42159;DHT22;27822;44.430;10.790;2022-07-29T06:26:05;30.20;67.50
42159;DHT22;27822;44.430;10.790;2022-07-29T06:28:32;30.10;68.00
42159;DHT22;27822;44.430;10.790;2022-07-29T06:30:58;30.00;69.40
42159;DHT22;27822;44.430;10.790;2022-07-29T06:33:24;30.00;68.60
42159;DHT22;27822;44.430;10.790;2022-07-29T06:35:50;30.00;69.30
42159;DHT22;27822;44.430;10.790;2022-07-29T06:38:16;30.10;69.30
42159;DHT22;27822;44.430;10.790;2022-07-29T06:40:45;30.20;69.20
42159;DHT22;27822;44.430;10.790;2022-07-29T06:43:40;30.20;69.10
42159;DHT22;27822;44.430;10.790;2022-07-29T06:46:15;30.30;68.70
42159;DHT22;27822;44.430;10.790;2022-07-29T06:48:43;30.20;69.50
42159;DHT22;27822;44.430;10.790;2022-07-29T06:51:10;30.10;70.10
42159;DHT22;27822;44.430;10.790;2022-07-29T06:53:37;29.80;70.40
42159;DHT22;27822;44.430;10.790;2022-07-29T06:56:04;29.60;71.80
42159;DHT22;27822;44.430;10.790;2022-07-29T06:58:30;29.50;71.70
42159;DHT22;27822;44.430;10.790;2022-07-29T07:00:57;29.30;72.40
42159;DHT22;27822;44.430;10.790;2022-07-29T07:03:24;29.10;73.00
42159;DHT22;27822;44.430;10.790;2022-07-29T07:05:52;29.00;73.50
42159;DHT22;27822;44.430;10.790;2022-07-29T07:08:19;29.00;74.50
42159;DHT22;27822;44.430;10.790;2022-07-29T07:10:47;29.20;73.40
42159;DHT22;27822;44.430;10.790;2022-07-29T07:13:14;29.30;73.50
42159;DHT22;27822;44.430;10.790;2022-07-29T07:15:46;29.50;72.20
42159;DHT22;27822;44.430;10.790;2022-07-29T07:18:17;29.40;73.10
42159;DHT22;27822;44.430;10.790;2022-07-29T07:22:59;29.70;71.80
42159;DHT22;27822;44.430;10.790;2022-07-29T07:25:25;29.50;72.70
42159;DHT22;27822;44.430;10.790;2022-07-29T07:27:54;29.40;73.40
42159;DHT22;27822;44.430;10.790;2022-07-29T07:30:21;29.50;73.40
42159;DHT22;27822;44.430;10.790;2022-07-29T07:32:48;29.60;73.40
42159;DHT22;27822;44.430;10.790;2022-07-29T07:35:14;29.50;72.20
42159;DHT22;27822;44.430;10.790;2022-07-29T07:37:40;29.20;72.60
42159;DHT22;27822;44.430;10.790;2022-07-29T07:40:10;29.00;74.10
42159;DHT22;27822;44.430;10.790;2022-07-29T07:42:37;29.10;73.80
42159;DHT22;27822;44.430;10.790;2022-07-29T07:45:03;29.10;74.30
42159;DHT22;27822;44.430;10.790;2022-07-29T07:47:30;29.10;74.40
42159;DHT22;27822;44.430;10.790;2022-07-29T07:49:56;29.20;74.30
42159;DHT22;27822;44.430;10.790;2022-07-29T07:52:22;29.10;75.00
42159;DHT22;27822;44.430;10.790;2022-07-29T07:54:48;29.10;74.50
42159;DHT22;27822;44.430;10.790;2022-07-29T07:57:14;29.10;75.10
42159;DHT22;27822;44.430;10.790;2022-07-29T07:59:41;29.10;75.10
42159;DHT22;27822;44.430;10.790;2022-07-29T08:02:09;29.00;75.00
42159;DHT22;27822;44.430;10.790;2022-07-29T08:04:36;28.80;75.50
42159;DHT22;27822;44.430;10.790;2022-07-29T08:07:06;28.60;75.70
42159;DHT22;27822;44.430;10.790;2022-07-29T08:09:35;28.60;77.10
42159;DHT22;27822;44.430;10.790;2022-07-29T08:12:02;28.60;76.80
42159;DHT22;27822;44.430;10.790;2022-07-29T08:14:30;28.60;76.90
42159;DHT22;27822;44.430;10.790;2022-07-29T08:16:57;28.60;77.00
42159;DHT22;27822;44.430;10.790;2022-07-29T08:19:24;28.60;77.20
42159;DHT22;27822;44.430;10.790;2022-07-29T08:21:51;28.70;77.40
42159;DHT22;27822;44.430;10.790;2022-07-29T08:24:19;28.70;78.00
42159;DHT22;27822;44.430;10.790;2022-07-29T08:27:04;28.80;77.20
42159;DHT22;27822;44.430;10.790;2022-07-29T08:29:30;28.80;77.20
42159;DHT22;27822;44.430;10.790;2022-07-29T08:31:56;29.00;77.00
42159;DHT22;27822;44.430;10.790;2022-07-29T08:34:22;29.00;76.50
42159;DHT22;27822;44.430;10.790;2022-07-29T08:36:48;28.90;76.50
42159;DHT22;27822;44.430;10.790;2022-07-29T08:39:13;28.70;78.30
42159;DHT22;27822;44.430;10.790;2022-07-29T08:41:39;28.80;77.90
42159;DHT22;27822;44.430;10.790;2022-07-29T08:44:05;28.90;76.90
42159;DHT22;27822;44.430;10.790;2022-07-29T08:46:31;28.90;77.20
42159;DHT22;27822;44.430;10.790;2022-07-29T08:48:56;28.80;77.30
42159;DHT22;27822;44.430;10.790;2022-07-29T08:51:22;28.90;77.20
42159;DHT22;27822;44.430;10.790;2022-07-29T08:53:49;28.90;77.50
42159;DHT22;27822;44.430;10.790;2022-07-29T08:56:16;29.00;77.20
42159;DHT22;27822;44.430;10.790;2022-07-29T08:58:53;29.00;76.40
42159;DHT22;27822;44.430;10.790;2022-07-29T09:01:27;29.00;76.40
42159;DHT22;27822;44.430;10.790;2022-07-29T09:03:57;29.10;76.30
42159;DHT22;27822;44.430;10.790;2022-07-29T09:06:31;29.10;76.20
42159;DHT22;27822;44.430;10.790;2022-07-29T09:08:59;29.10;76.70
42159;DHT22;27822;44.430;10.790;2022-07-29T09:11:25;29.00;76.00
42159;DHT22;27822;44.430;10.790;2022-07-29T09:13:51;29.10;76.20
42159;DHT22;27822;44.430;10.790;2022-07-29T09:16:17;29.10;76.00
42159;DHT22;27822;44.430;10.790;2022-07-29T09:18:45;29.00;76.00
42159;DHT22;27822;44.430;10.790;2022-07-29T09:21:16;29.10;76.80
42159;DHT22;27822;44.430;10.790;2022-07-29T09:26:31;29.00;76.30
42159;DHT22;27822;44.430;10.790;2022-07-29T09:28:58;29.00;77.00
42159;DHT22;27822;44.430;10.790;2022-07-29T09:31:36;29.00;76.20
42159;DHT22;27822;44.430;10.790;2022-07-29T09:34:04;29.00;76.50
42159;DHT22;27822;44.430;10.790;2022-07-29T09:36:42;29.00;76.20
42159;DHT22;27822;44.430;10.790;2022-07-29T09:39:09;29.10;75.90
42159;DHT22;27822;44.430;10.790;2022-07-29T09:41:49;29.10;75.60
42159;DHT22;27822;44.430;10.790;2022-07-29T09:44:19;29.00;75.90
42159;DHT22;27822;44.430;10.790;2022-07-29T09:47:03;29.00;77.70
42159;DHT22;27822;44.430;10.790;2022-07-29T09:49:58;29.00;76.80
42159;DHT22;27822;44.430;10.790;2022-07-29T09:52:26;29.00;76.90
42159;DHT22;27822;44.430;10.790;2022-07-29T09:55:04;29.00;75.50
42159;DHT22;27822;44.430;10.790;2022-07-29T09:57:30;29.10;76.20
42159;DHT22;27822;44.430;10.790;2022-07-29T10:00:05;29.10;76.20
42159;DHT22;27822;44.430;10.790;2022-07-29T10:02:35;29.20;76.20
42159;DHT22;27822;44.430;10.790;2022-07-29T10:05:02;29.20;76.00
42159;DHT22;27822;44.430;10.790;2022-07-29T10:07:52;29.20;75.20
42159;DHT22;27822;44.430;10.790;2022-07-29T10:10:28;29.20;75.70
42159;DHT22;27822;44.430;10.790;2022-07-29T10:12:56;29.00;75.80
42159;DHT22;27822;44.430;10.790;2022-07-29T10:15:24;28.90;76.80
42159;DHT22;27822;44.430;10.790;2022-07-29T10:17:51;29.00;76.90
42159;DHT22;27822;44.430;10.790;2022-07-29T10:20:17;29.00;76.30
42159;DHT22;27822;44.430;10.790;2022-07-29T10:22:43;29.00;76.30
42159;DHT22;27822;44.430;10.790;2022-07-29T10:25:10;29.10;76.30
42159;DHT22;27822;44.430;10.790;2022-07-29T10:27:37;29.20;75.40
42159;DHT22;27822;44.430;10.790;2022-07-29T10:30:04;29.20;75.60
42159;DHT22;27822;44.430;10.790;2022-07-29T10:41:19;29.40;74.50
42159;DHT22;27822;44.430;10.790;2022-07-29T10:44:05;29.30;73.90
42159;DHT22;27822;44.430;10.790;2022-07-29T10:46:39;29.20;73.50
42159;DHT22;27822;44.430;10.790;2022-07-29T10:54:19;29.30;73.80
42159;DHT22;27822;44.430;10.790;2022-07-29T10:57:17;29.30;74.00
42159;DHT22;27822;44.430;10.790;2022-07-29T10:59:47;29.20;73.90
42159;DHT22;27822;44.430;10.790;2022-07-29T11:07:26;29.40;73.90
42159;DHT22;27822;44.430;10.790;2022-07-29T11:15:10;29.40;74.80
42159;DHT22;27822;44.430;10.790;2022-07-29T11:20:43;29.50;73.30
42159;DHT22;27822;44.430;10.790;2022-07-29T11:23:34;29.50;74.00
42159;DHT22;27822;44.430;10.790;2022-07-29T11:34:25;29.50;73.30
42159;DHT22;27822;44.430;10.790;2022-07-29T11:44:58;29.50;72.30
42159;DHT22;27822;44.430;10.790;2022-07-29T11:47:26;29.60;73.10
42159;DHT22;27822;44.430;10.790;2022-07-29T11:49:54;29.60;73.00
42159;DHT22;27822;44.430;10.790;2022-07-29T11:52:21;29.70;72.60
42159;DHT22;27822;44.430;10.790;2022-07-29T11:54:48;29.80;71.90
42159;DHT22;27822;44.430;10.790;2022-07-29T11:57:19;29.80;71.50
42159;DHT22;27822;44.430;10.790;2022-07-29T11:59:46;29.70;71.80
42159;DHT22;27822;44.430;10.790;2022-07-29T12:02:14;29.60;72.20
42159;DHT22;27822;44.430;10.790;2022-07-29T12:07:16;29.60;72.20
42159;DHT22;27822;44.430;10.790;2022-07-29T12:09:52;29.70;72.00
42159;DHT22;27822;44.430;10.790;2022-07-29T12:12:18;29.70;72.40
42159;DHT22;27822;44.430;10.790;2022-07-29T12:14:44;29.70;71.80
42159;DHT22;27822;44.430;10.790;2022-07-29T12:17:25;29.70;71.80
42159;DHT22;27822;44.430;10.790;2022-07-29T12:19:53;29.80;71.80
42159;DHT22;27822;44.430;10.790;2022-07-29T12:22:37;29.90;71.70
42159;DHT22;27822;44.430;10.790;2022-07-29T12:25:08;29.70;71.90
42159;DHT22;27822;44.430;10.790;2022-07-29T12:27:35;29.60;71.60
42159;DHT22;27822;44.430;10.790;2022-07-29T12:30:04;29.50;71.60
42159;DHT22;27822;44.430;10.790;2022-07-29T12:32:34;29.40;72.00
42159;DHT22;27822;44.430;10.790;2022-07-29T12:35:12;29.50;71.90
42159;DHT22;27822;44.430;10.790;2022-07-29T12:37:41;29.50;72.10
42159;DHT22;27822;44.430;10.790;2022-07-29T12:40:10;29.60;71.90
42159;DHT22;27822;44.430;10.790;2022-07-29T12:42:36;29.70;71.70
42159;DHT22;27822;44.430;10.790;2022-07-29T12:45:03;29.70;72.00
42159;DHT22;27822;44.430;10.790;2022-07-29T12:47:29;29.70;72.10
42159;DHT22;27822;44.430;10.790;2022-07-29T12:50:12;29.70;71.90
42159;DHT22;27822;44.430;10.790;2022-07-29T12:52:40;29.70;72.00
42159;DHT22;27822;44.430;10.790;2022-07-29T12:55:06;29.80;72.10
42159;DHT22;27822;44.430;10.790;2022-07-29T12:57:47;29.80;72.10
42159;DHT22;27822;44.430;10.790;2022-07-29T13:00:14;29.80;71.60
42159;DHT22;27822;44.430;10.790;2022-07-29T13:02:41;29.90;71.00
42159;DHT22;27822;44.430;10.790;2022-07-29T13:05:09;29.90;71.30
42159;DHT22;27822;44.430;10.790;2022-07-29T13:07:37;29.90;71.50
42159;DHT22;27822;44.430;10.790;2022-07-29T13:10:13;29.90;72.10
42159;DHT22;27822;44.430;10.790;2022-07-29T13:15:28;29.60;71.30
42159;DHT22;27822;44.430;10.790;2022-07-29T13:17:55;29.40;71.60
42159;DHT22;27822;44.430;10.790;2022-07-29T13:20:24;29.30;72.20
42159;DHT22;27822;44.430;10.790;2022-07-29T13:22:53;29.40;72.30
42159;DHT22;27822;44.430;10.790;2022-07-29T13:25:28;29.30;72.60
42159;DHT22;27822;44.430;10.790;2022-07-29T13:27:55;29.30;72.70
42159;DHT22;27822;44.430;10.790;2022-07-29T13:30:22;29.20;73.00
42159;DHT22;27822;44.430;10.790;2022-07-29T13:32:49;29.20;73.20
42159;DHT22;27822;44.430;10.790;2022-07-29T13:35:16;29.10;73.70
42159;DHT22;27822;44.430;10.790;2022-07-29T13:37:42;29.00;73.80
42159;DHT22;27822;44.430;10.790;2022-07-29T13:40:09;28.90;73.70
42159;DHT22;27822;44.430;10.790;2022-07-29T13:42:35;28.80;73.60
42159;DHT22;27822;44.430;10.790;2022-07-29T13:45:02;28.70;76.90
42159;DHT22;27822;44.430;10.790;2022-07-29T13:47:32;28.60;80.70
42159;DHT22;27822;44.430;10.790;2022-07-29T13:49:58;28.40;83.50
42159;DHT22;27822;44.430;10.790;2022-07-29T13:52:24;28.10;87.90
42159;DHT22;27822;44.430;10.790;2022-07-29T13:54:51;28.00;86.00
42159;DHT22;27822;44.430;10.790;2022-07-29T13:57:21;27.80;88.80
42159;DHT22;27822;44.430;10.790;2022-07-29T13:59:47;27.60;87.60
42159;DHT22;27822;44.430;10.790;2022-07-29T14:02:14;27.50;88.20
42159;DHT22;27822;44.430;10.790;2022-07-29T14:04:40;27.40;88.40
42159;DHT22;27822;44.430;10.790;2022-07-29T14:07:06;27.20;89.20
42159;DHT22;27822;44.430;10.790;2022-07-29T14:09:35;27.20;89.10
42159;DHT22;27822;44.430;10.790;2022-07-29T14:12:01;27.30;91.80
42159;DHT22;27822;44.430;10.790;2022-07-29T14:14:28;27.30;90.40
42159;DHT22;27822;44.430;10.790;2022-07-29T14:16:55;27.40;91.00
42159;DHT22;27822;44.430;10.790;2022-07-29T14:19:21;27.40;91.30
42159;DHT22;27822;44.430;10.790;2022-07-29T14:21:46;27.50;91.50
42159;DHT22;27822;44.430;10.790;2022-07-29T14:24:12;27.50;91.60
42159;DHT22;27822;44.430;10.790;2022-07-29T14:26:38;27.50;92.60
42159;DHT22;27822;44.430;10.790;2022-07-29T14:29:04;27.40;93.50
42159;DHT22;27822;44.430;10.790;2022-07-29T14:31:30;27.50;93.20
42159;DHT22;27822;44.430;10.790;2022-07-29T14:33:56;27.50;92.90
42159;DHT22;27822;44.430;10.790;2022-07-29T14:36:24;27.70;93.20
42159;DHT22;27822;44.430;10.790;2022-07-29T14:38:50;27.80;93.80
42159;DHT22;27822;44.430;10.790;2022-07-29T14:41:16;28.00;94.20
42159;DHT22;27822;44.430;10.790;2022-07-29T14:43:42;28.10;92.90
42159;DHT22;27822;44.430;10.790;2022-07-29T14:46:08;28.20;93.40
42159;DHT22;27822;44.430;10.790;2022-07-29T14:48:34;28.10;92.90
42159;DHT22;27822;44.430;10.790;2022-07-29T14:51:00;28.10;93.20
42159;DHT22;27822;44.430;10.790;2022-07-29T14:53:26;28.10;93.80
42159;DHT22;27822;44.430;10.790;2022-07-29T14:55:55;28.10;89.70
42159;DHT22;27822;44.430;10.790;2022-07-29T14:58:21;27.90;90.00
42159;DHT22;27822;44.430;10.790;2022-07-29T15:00:48;27.90;89.70
42159;DHT22;27822;44.430;10.790;2022-07-29T15:03:14;27.90;90.30
42159;DHT22;27822;44.430;10.790;2022-07-29T15:05:40;27.90;86.50
42159;DHT22;27822;44.430;10.790;2022-07-29T15:08:06;27.90;90.40
42159;DHT22;27822;44.430;10.790;2022-07-29T15:10:37;28.00;89.70
42159;DHT22;27822;44.430;10.790;2022-07-29T15:13:03;28.10;89.90
42159;DHT22;27822;44.430;10.790;2022-07-29T15:15:29;28.00;90.30
42159;DHT22;27822;44.430;10.790;2022-07-29T15:17:54;28.00;90.90
42159;DHT22;27822;44.430;10.790;2022-07-29T15:20:21;28.00;93.00
42159;DHT22;27822;44.430;10.790;2022-07-29T15:22:47;28.00;93.00
42159;DHT22;27822;44.430;10.790;2022-07-29T15:25:13;28.00;93.40
42159;DHT22;27822;44.430;10.790;2022-07-29T15:27:39;27.90;93.70
42159;DHT22;27822;44.430;10.790;2022-07-29T15:30:05;27.80;91.90
42159;DHT22;27822;44.430;10.790;2022-07-29T15:32:31;27.30;91.00
42159;DHT22;27822;44.430;10.790;2022-07-29T15:34:57;26.80;91.00
42159;DHT22;27822;44.430;10.790;2022-07-29T15:37:22;26.40;91.30
42159;DHT22;27822;44.430;10.790;2022-07-29T15:39:48;26.00;91.10
42159;DHT22;27822;44.430;10.790;2022-07-29T15:42:14;25.90;91.50
42159;DHT22;27822;44.430;10.790;2022-07-29T15:44:40;25.80;91.60
42159;DHT22;27822;44.430;10.790;2022-07-29T15:47:06;25.80;91.50
42159;DHT22;27822;44.430;10.790;2022-07-29T15:49:34;25.90;91.50
42159;DHT22;27822;44.430;10.790;2022-07-29T15:52:02;25.90;90.90
42159;DHT22;27822;44.430;10.790;2022-07-29T15:54:29;26.00;91.30
42159;DHT22;27822;44.430;10.790;2022-07-29T15:56:55;26.20;91.10
42159;DHT22;27822;44.430;10.790;2022-07-29T15:59:22;26.30;91.80
42159;DHT22;27822;44.430;10.790;2022-07-29T16:01:48;26.40;91.60
42159;DHT22;27822;44.430;10.790;2022-07-29T16:04:14;26.50;91.70
42159;DHT22;27822;44.430;10.790;2022-07-29T16:06:40;26.50;92.80
42159;DHT22;27822;44.430;10.790;2022-07-29T16:09:06;26.50;92.70
42159;DHT22;27822;44.430;10.790;2022-07-29T16:11:32;26.50;92.80
42159;DHT22;27822;44.430;10.790;2022-07-29T16:13:58;26.60;93.30
42159;DHT22;27822;44.430;10.790;2022-07-29T16:16:25;26.60;92.30
42159;DHT22;27822;44.430;10.790;2022-07-29T16:18:51;26.60;92.60
42159;DHT22;27822;44.430;10.790;2022-07-29T16:21:16;26.60;93.40
42159;DHT22;27822;44.430;10.790;2022-07-29T16:23:42;26.70;93.50
42159;DHT22;27822;44.430;10.790;2022-07-29T16:26:08;26.70;93.80
42159;DHT22;27822;44.430;10.790;2022-07-29T16:28:34;26.70;94.30
42159;DHT22;27822;44.430;10.790;2022-07-29T16:31:00;26.60;94.50
42159;DHT22;27822;44.430;10.790;2022-07-29T16:33:26;26.60;94.10